Terminal Aerodrome Forecast
Issued by NWS Bismarck, ND

Home | Current Version | Previous Version | Text Only | Print | Product List | Glossary Off
Versions: 1 2 3 4 5 6 7 8 9 10 11 12 13 14 15 16 17 18 19 20 21 22 23 24

000
FTUS43 KBIS 150806 AAA
TAFBIS
TAF AMD
KBIS 150806Z 1508/1606 11005KT P6SM BKN200
     FM150900 12004KT P6SM -SHRA BKN100
     FM151000 11004KT 6SM SHRA OVC050
     FM151300 11004KT P6SM -SHRA OVC020
     FM151700 13007KT 5SM -SHRA VCTS OVC008CB
     FM152200 13008KT P6SM VCTS OVC015CB
     FM160000 13006KT P6SM OVC025=

USA.gov is the U.S. government's official web portal to all federal, state and local government web resources and services.